sensor_id;sensor_type;location;lat;lon;timestamp;P1;durP1;ratioP1;P2;durP2;ratioP2
8538;SDS011;4307;53.868;11.680;2023-06-10T00:01:42;6.60;;;2.67;;
8538;SDS011;4307;53.868;11.680;2023-06-10T00:04:12;7.93;;;2.73;;
8538;SDS011;4307;53.868;11.680;2023-06-10T00:06:40;6.20;;;3.00;;
8538;SDS011;4307;53.868;11.680;2023-06-10T00:09:06;5.33;;;2.70;;
8538;SDS011;4307;53.868;11.680;2023-06-10T00:11:35;9.40;;;2.40;;
8538;SDS011;4307;53.868;11.680;2023-06-10T00:14:02;8.50;;;3.00;;
8538;SDS011;4307;53.868;11.680;2023-06-10T00:16:29;5.57;;;2.60;;
8538;SDS011;4307;53.868;11.680;2023-06-10T00:18:55;7.60;;;2.83;;
8538;SDS011;4307;53.868;11.680;2023-06-10T00:21:25;6.03;;;2.57;;
8538;SDS011;4307;53.868;11.680;2023-06-10T00:23:53;4.30;;;2.50;;
8538;SDS011;4307;53.868;11.680;2023-06-10T00:26:21;5.83;;;2.60;;
8538;SDS011;4307;53.868;11.680;2023-06-10T00:28:48;4.47;;;2.80;;
8538;SDS011;4307;53.868;11.680;2023-06-10T00:31:14;11.67;;;3.23;;
8538;SDS011;4307;53.868;11.680;2023-06-10T00:33:41;7.20;;;2.50;;
8538;SDS011;4307;53.868;11.680;2023-06-10T00:36:08;3.00;;;2.33;;
8538;SDS011;4307;53.868;11.680;2023-06-10T00:38:35;5.90;;;2.57;;
8538;SDS011;4307;53.868;11.680;2023-06-10T00:41:03;4.67;;;2.53;;
8538;SDS011;4307;53.868;11.680;2023-06-10T00:43:30;6.57;;;2.30;;
8538;SDS011;4307;53.868;11.680;2023-06-10T00:45:56;8.97;;;3.13;;
8538;SDS011;4307;53.868;11.680;2023-06-10T00:48:23;5.57;;;2.77;;
8538;SDS011;4307;53.868;11.680;2023-06-10T00:50:50;7.67;;;2.70;;
8538;SDS011;4307;53.868;11.680;2023-06-10T00:53:17;9.63;;;2.97;;
8538;SDS011;4307;53.868;11.680;2023-06-10T00:55:44;6.37;;;2.63;;
8538;SDS011;4307;53.868;11.680;2023-06-10T00:58:12;7.13;;;2.27;;
8538;SDS011;4307;53.868;11.680;2023-06-10T01:00:39;8.87;;;2.90;;
8538;SDS011;4307;53.868;11.680;2023-06-10T01:03:05;5.57;;;2.40;;
8538;SDS011;4307;53.868;11.680;2023-06-10T01:05:34;10.10;;;2.93;;
8538;SDS011;4307;53.868;11.680;2023-06-10T01:08:02;9.90;;;3.13;;
8538;SDS011;4307;53.868;11.680;2023-06-10T01:10:33;7.17;;;2.47;;
8538;SDS011;4307;53.868;11.680;2023-06-10T01:13:05;8.70;;;2.57;;
8538;SDS011;4307;53.868;11.680;2023-06-10T01:15:38;7.23;;;2.60;;
8538;SDS011;4307;53.868;11.680;2023-06-10T01:18:06;6.70;;;2.63;;
8538;SDS011;4307;53.868;11.680;2023-06-10T01:20:35;8.03;;;2.50;;
8538;SDS011;4307;53.868;11.680;2023-06-10T01:23:06;7.77;;;2.90;;
8538;SDS011;4307;53.868;11.680;2023-06-10T01:25:37;6.17;;;2.90;;
8538;SDS011;4307;53.868;11.680;2023-06-10T01:28:10;4.00;;;2.30;;
8538;SDS011;4307;53.868;11.680;2023-06-10T01:30:42;6.90;;;2.63;;
8538;SDS011;4307;53.868;11.680;2023-06-10T01:33:14;4.83;;;2.33;;
8538;SDS011;4307;53.868;11.680;2023-06-10T01:35:44;5.77;;;2.43;;
8538;SDS011;4307;53.868;11.680;2023-06-10T01:38:14;5.57;;;2.63;;
8538;SDS011;4307;53.868;11.680;2023-06-10T01:40:41;9.13;;;2.87;;
8538;SDS011;4307;53.868;11.680;2023-06-10T01:43:09;8.03;;;2.60;;
8538;SDS011;4307;53.868;11.680;2023-06-10T01:45:35;3.53;;;2.17;;
8538;SDS011;4307;53.868;11.680;2023-06-10T01:48:02;5.20;;;2.07;;
8538;SDS011;4307;53.868;11.680;2023-06-10T01:50:29;7.27;;;2.30;;
8538;SDS011;4307;53.868;11.680;2023-06-10T01:52:56;7.40;;;2.63;;
8538;SDS011;4307;53.868;11.680;2023-06-10T01:55:24;4.67;;;2.07;;
8538;SDS011;4307;53.868;11.680;2023-06-10T01:57:51;7.53;;;2.57;;
8538;SDS011;4307;53.868;11.680;2023-06-10T02:00:18;7.50;;;3.40;;
8538;SDS011;4307;53.868;11.680;2023-06-10T02:02:44;3.70;;;2.27;;
8538;SDS011;4307;53.868;11.680;2023-06-10T02:05:11;4.63;;;2.07;;
8538;SDS011;4307;53.868;11.680;2023-06-10T02:07:38;8.60;;;2.23;;
8538;SDS011;4307;53.868;11.680;2023-06-10T02:10:05;3.80;;;2.20;;
8538;SDS011;4307;53.868;11.680;2023-06-10T02:12:34;5.80;;;2.50;;
8538;SDS011;4307;53.868;11.680;2023-06-10T02:15:01;6.17;;;2.27;;
8538;SDS011;4307;53.868;11.680;2023-06-10T02:17:28;5.77;;;2.13;;
8538;SDS011;4307;53.868;11.680;2023-06-10T02:19:55;5.57;;;2.30;;
8538;SDS011;4307;53.868;11.680;2023-06-10T02:22:23;5.50;;;2.10;;
8538;SDS011;4307;53.868;11.680;2023-06-10T02:24:50;5.77;;;2.50;;
8538;SDS011;4307;53.868;11.680;2023-06-10T02:27:17;4.40;;;2.20;;
8538;SDS011;4307;53.868;11.680;2023-06-10T02:29:45;7.73;;;2.80;;
8538;SDS011;4307;53.868;11.680;2023-06-10T02:32:12;9.03;;;2.53;;
8538;SDS011;4307;53.868;11.680;2023-06-10T02:34:39;6.57;;;2.70;;
8538;SDS011;4307;53.868;11.680;2023-06-10T02:37:07;5.70;;;2.70;;
8538;SDS011;4307;53.868;11.680;2023-06-10T02:39:34;5.93;;;2.60;;
8538;SDS011;4307;53.868;11.680;2023-06-10T02:42:01;7.13;;;2.40;;
8538;SDS011;4307;53.868;11.680;2023-06-10T02:44:27;7.80;;;2.20;;
8538;SDS011;4307;53.868;11.680;2023-06-10T02:46:55;6.73;;;2.10;;
8538;SDS011;4307;53.868;11.680;2023-06-10T02:49:22;5.50;;;2.20;;
8538;SDS011;4307;53.868;11.680;2023-06-10T02:51:49;7.00;;;2.20;;
8538;SDS011;4307;53.868;11.680;2023-06-10T02:54:18;4.93;;;2.23;;
8538;SDS011;4307;53.868;11.680;2023-06-10T02:56:45;4.57;;;2.10;;
8538;SDS011;4307;53.868;11.680;2023-06-10T02:59:12;7.57;;;2.27;;
8538;SDS011;4307;53.868;11.680;2023-06-10T03:01:39;3.20;;;1.70;;
8538;SDS011;4307;53.868;11.680;2023-06-10T03:04:07;3.47;;;1.57;;
8538;SDS011;4307;53.868;11.680;2023-06-10T03:06:35;8.00;;;2.10;;
8538;SDS011;4307;53.868;11.680;2023-06-10T03:09:03;3.00;;;2.27;;
8538;SDS011;4307;53.868;11.680;2023-06-10T03:11:32;5.50;;;2.30;;
8538;SDS011;4307;53.868;11.680;2023-06-10T03:13:59;11.67;;;2.93;;
8538;SDS011;4307;53.868;11.680;2023-06-10T03:16:25;5.67;;;1.80;;
8538;SDS011;4307;53.868;11.680;2023-06-10T03:18:52;6.13;;;2.30;;
8538;SDS011;4307;53.868;11.680;2023-06-10T03:21:20;7.10;;;2.37;;
8538;SDS011;4307;53.868;11.680;2023-06-10T03:23:47;7.20;;;2.67;;
8538;SDS011;4307;53.868;11.680;2023-06-10T03:26:14;4.40;;;1.90;;
8538;SDS011;4307;53.868;11.680;2023-06-10T03:28:41;5.57;;;2.60;;
8538;SDS011;4307;53.868;11.680;2023-06-10T03:31:08;6.13;;;1.93;;
8538;SDS011;4307;53.868;11.680;2023-06-10T03:33:35;7.80;;;2.37;;
8538;SDS011;4307;53.868;11.680;2023-06-10T03:36:02;7.93;;;2.33;;
8538;SDS011;4307;53.868;11.680;2023-06-10T03:38:31;5.40;;;2.13;;
8538;SDS011;4307;53.868;11.680;2023-06-10T03:40:57;7.60;;;2.43;;
8538;SDS011;4307;53.868;11.680;2023-06-10T03:43:24;6.50;;;2.07;;
8538;SDS011;4307;53.868;11.680;2023-06-10T03:45:51;6.13;;;1.93;;
8538;SDS011;4307;53.868;11.680;2023-06-10T03:48:18;6.03;;;2.20;;
8538;SDS011;4307;53.868;11.680;2023-06-10T03:50:45;3.53;;;1.47;;
8538;SDS011;4307;53.868;11.680;2023-06-10T03:53:12;4.13;;;1.97;;
8538;SDS011;4307;53.868;11.680;2023-06-10T03:55:40;6.17;;;2.30;;
8538;SDS011;4307;53.868;11.680;2023-06-10T03:58:07;5.30;;;2.20;;
8538;SDS011;4307;53.868;11.680;2023-06-10T04:00:33;7.20;;;2.47;;
8538;SDS011;4307;53.868;11.680;2023-06-10T04:03:06;4.60;;;2.10;;
8538;SDS011;4307;53.868;11.680;2023-06-10T04:05:34;5.60;;;2.30;;
8538;SDS011;4307;53.868;11.680;2023-06-10T04:08:01;5.83;;;2.33;;
8538;SDS011;4307;53.868;11.680;2023-06-10T04:10:27;5.93;;;2.00;;
8538;SDS011;4307;53.868;11.680;2023-06-10T04:12:55;4.73;;;2.07;;
8538;SDS011;4307;53.868;11.680;2023-06-10T04:15:22;6.90;;;1.90;;
8538;SDS011;4307;53.868;11.680;2023-06-10T04:17:48;6.97;;;2.03;;
8538;SDS011;4307;53.868;11.680;2023-06-10T04:20:15;4.63;;;2.60;;
8538;SDS011;4307;53.868;11.680;2023-06-10T04:22:42;4.73;;;1.93;;
8538;SDS011;4307;53.868;11.680;2023-06-10T04:25:09;4.80;;;2.30;;
8538;SDS011;4307;53.868;11.680;2023-06-10T04:27:36;5.20;;;2.17;;
8538;SDS011;4307;53.868;11.680;2023-06-10T04:30:04;6.40;;;1.87;;
8538;SDS011;4307;53.868;11.680;2023-06-10T04:32:32;7.37;;;2.17;;
8538;SDS011;4307;53.868;11.680;2023-06-10T04:34:59;6.90;;;2.00;;
8538;SDS011;4307;53.868;11.680;2023-06-10T04:37:26;4.70;;;1.97;;
8538;SDS011;4307;53.868;11.680;2023-06-10T04:39:54;5.30;;;2.20;;
8538;SDS011;4307;53.868;11.680;2023-06-10T04:42:20;4.30;;;2.00;;
8538;SDS011;4307;53.868;11.680;2023-06-10T04:44:47;5.57;;;2.30;;
8538;SDS011;4307;53.868;11.680;2023-06-10T04:47:15;4.90;;;2.27;;
8538;SDS011;4307;53.868;11.680;2023-06-10T04:49:42;6.80;;;2.60;;
8538;SDS011;4307;53.868;11.680;2023-06-10T04:52:09;4.47;;;1.83;;
8538;SDS011;4307;53.868;11.680;2023-06-10T04:54:36;8.03;;;2.40;;
8538;SDS011;4307;53.868;11.680;2023-06-10T04:57:03;4.50;;;1.97;;
8538;SDS011;4307;53.868;11.680;2023-06-10T04:59:33;7.27;;;2.50;;
8538;SDS011;4307;53.868;11.680;2023-06-10T05:02:02;6.50;;;2.43;;
8538;SDS011;4307;53.868;11.680;2023-06-10T05:04:30;10.07;;;2.60;;
8538;SDS011;4307;53.868;11.680;2023-06-10T05:06:57;4.77;;;2.30;;
8538;SDS011;4307;53.868;11.680;2023-06-10T05:09:24;4.60;;;1.97;;
8538;SDS011;4307;53.868;11.680;2023-06-10T05:11:51;4.33;;;2.00;;
8538;SDS011;4307;53.868;11.680;2023-06-10T05:14:18;5.47;;;2.50;;
8538;SDS011;4307;53.868;11.680;2023-06-10T05:16:45;5.40;;;2.17;;
8538;SDS011;4307;53.868;11.680;2023-06-10T05:19:12;4.17;;;2.40;;
8538;SDS011;4307;53.868;11.680;2023-06-10T05:21:42;7.13;;;3.13;;
8538;SDS011;4307;53.868;11.680;2023-06-10T05:24:10;4.37;;;2.67;;
8538;SDS011;4307;53.868;11.680;2023-06-10T05:26:37;7.83;;;2.90;;
8538;SDS011;4307;53.868;11.680;2023-06-10T05:29:04;5.87;;;2.50;;
8538;SDS011;4307;53.868;11.680;2023-06-10T05:31:31;6.97;;;2.60;;
8538;SDS011;4307;53.868;11.680;2023-06-10T05:33:57;7.37;;;2.87;;
8538;SDS011;4307;53.868;11.680;2023-06-10T05:36:24;4.67;;;2.50;;
8538;SDS011;4307;53.868;11.680;2023-06-10T05:38:53;8.87;;;2.40;;
8538;SDS011;4307;53.868;11.680;2023-06-10T05:41:19;5.77;;;3.00;;
8538;SDS011;4307;53.868;11.680;2023-06-10T05:43:47;5.40;;;2.60;;
8538;SDS011;4307;53.868;11.680;2023-06-10T05:46:13;5.80;;;2.30;;
8538;SDS011;4307;53.868;11.680;2023-06-10T05:48:40;3.73;;;2.37;;
8538;SDS011;4307;53.868;11.680;2023-06-10T05:51:07;6.53;;;3.17;;
8538;SDS011;4307;53.868;11.680;2023-06-10T05:53:33;8.67;;;2.80;;
8538;SDS011;4307;53.868;11.680;2023-06-10T05:56:01;4.60;;;2.67;;
8538;SDS011;4307;53.868;11.680;2023-06-10T05:58:28;5.63;;;2.70;;
8538;SDS011;4307;53.868;11.680;2023-06-10T06:00:55;6.47;;;2.67;;
8538;SDS011;4307;53.868;11.680;2023-06-10T06:03:21;5.87;;;2.70;;
8538;SDS011;4307;53.868;11.680;2023-06-10T06:05:48;5.53;;;2.83;;
8538;SDS011;4307;53.868;11.680;2023-06-10T06:08:15;8.30;;;3.07;;
8538;SDS011;4307;53.868;11.680;2023-06-10T06:10:44;5.50;;;3.03;;
8538;SDS011;4307;53.868;11.680;2023-06-10T06:13:12;6.80;;;2.93;;
8538;SDS011;4307;53.868;11.680;2023-06-10T06:15:38;4.63;;;2.57;;
8538;SDS011;4307;53.868;11.680;2023-06-10T06:18:05;5.27;;;2.57;;
8538;SDS011;4307;53.868;11.680;2023-06-10T06:20:32;4.17;;;2.90;;
8538;SDS011;4307;53.868;11.680;2023-06-10T06:22:58;5.97;;;3.17;;
8538;SDS011;4307;53.868;11.680;2023-06-10T06:25:25;8.47;;;3.63;;
8538;SDS011;4307;53.868;11.680;2023-06-10T06:27:52;7.10;;;4.03;;
8538;SDS011;4307;53.868;11.680;2023-06-10T06:30:20;8.97;;;3.20;;
8538;SDS011;4307;53.868;11.680;2023-06-10T06:32:47;8.77;;;3.43;;
8538;SDS011;4307;53.868;11.680;2023-06-10T06:35:14;6.37;;;3.27;;
8538;SDS011;4307;53.868;11.680;2023-06-10T06:37:41;4.90;;;2.50;;
8538;SDS011;4307;53.868;11.680;2023-06-10T06:40:08;6.10;;;3.17;;
8538;SDS011;4307;53.868;11.680;2023-06-10T06:42:36;9.03;;;3.40;;
8538;SDS011;4307;53.868;11.680;2023-06-10T06:45:02;9.40;;;3.20;;
8538;SDS011;4307;53.868;11.680;2023-06-10T06:47:31;8.27;;;3.27;;
8538;SDS011;4307;53.868;11.680;2023-06-10T06:49:58;6.87;;;3.43;;
8538;SDS011;4307;53.868;11.680;2023-06-10T06:52:24;8.83;;;3.43;;
8538;SDS011;4307;53.868;11.680;2023-06-10T06:54:51;8.27;;;4.03;;
8538;SDS011;4307;53.868;11.680;2023-06-10T06:57:18;6.83;;;3.37;;
8538;SDS011;4307;53.868;11.680;2023-06-10T06:59:45;5.70;;;3.20;;
8538;SDS011;4307;53.868;11.680;2023-06-10T07:02:12;6.77;;;2.97;;
8538;SDS011;4307;53.868;11.680;2023-06-10T07:04:40;9.43;;;2.93;;
8538;SDS011;4307;53.868;11.680;2023-06-10T07:07:07;5.57;;;3.00;;
8538;SDS011;4307;53.868;11.680;2023-06-10T07:09:34;8.77;;;3.00;;
8538;SDS011;4307;53.868;11.680;2023-06-10T07:12:00;5.67;;;3.17;;
8538;SDS011;4307;53.868;11.680;2023-06-10T07:14:27;8.33;;;2.93;;
8538;SDS011;4307;53.868;11.680;2023-06-10T07:16:54;5.33;;;3.17;;
8538;SDS011;4307;53.868;11.680;2023-06-10T07:19:21;7.37;;;3.30;;
8538;SDS011;4307;53.868;11.680;2023-06-10T07:21:48;7.43;;;3.27;;
8538;SDS011;4307;53.868;11.680;2023-06-10T07:24:15;7.67;;;2.60;;
8538;SDS011;4307;53.868;11.680;2023-06-10T07:26:42;9.00;;;3.20;;
8538;SDS011;4307;53.868;11.680;2023-06-10T07:29:08;4.90;;;2.93;;
8538;SDS011;4307;53.868;11.680;2023-06-10T07:31:35;7.53;;;3.17;;
8538;SDS011;4307;53.868;11.680;2023-06-10T07:34:02;6.53;;;3.40;;
8538;SDS011;4307;53.868;11.680;2023-06-10T07:36:29;8.87;;;3.47;;
8538;SDS011;4307;53.868;11.680;2023-06-10T07:38:57;9.30;;;2.90;;
8538;SDS011;4307;53.868;11.680;2023-06-10T07:41:23;8.90;;;3.53;;
8538;SDS011;4307;53.868;11.680;2023-06-10T07:43:50;8.60;;;3.13;;
8538;SDS011;4307;53.868;11.680;2023-06-10T07:46:19;5.77;;;3.13;;
8538;SDS011;4307;53.868;11.680;2023-06-10T07:48:47;6.77;;;3.13;;
8538;SDS011;4307;53.868;11.680;2023-06-10T07:51:14;7.60;;;3.33;;
8538;SDS011;4307;53.868;11.680;2023-06-10T07:53:41;6.27;;;3.30;;
8538;SDS011;4307;53.868;11.680;2023-06-10T07:56:10;6.13;;;3.43;;
8538;SDS011;4307;53.868;11.680;2023-06-10T07:58:37;4.90;;;3.03;;
8538;SDS011;4307;53.868;11.680;2023-06-10T08:01:03;8.00;;;3.67;;
8538;SDS011;4307;53.868;11.680;2023-06-10T08:03:30;5.83;;;3.40;;
8538;SDS011;4307;53.868;11.680;2023-06-10T08:05:57;7.10;;;3.60;;
8538;SDS011;4307;53.868;11.680;2023-06-10T08:08:23;7.03;;;3.27;;
8538;SDS011;4307;53.868;11.680;2023-06-10T08:10:50;6.00;;;3.10;;
8538;SDS011;4307;53.868;11.680;2023-06-10T08:13:18;12.77;;;3.33;;
8538;SDS011;4307;53.868;11.680;2023-06-10T08:15:45;7.17;;;3.30;;
8538;SDS011;4307;53.868;11.680;2023-06-10T08:18:15;6.27;;;3.80;;
8538;SDS011;4307;53.868;11.680;2023-06-10T08:20:42;6.37;;;3.17;;
8538;SDS011;4307;53.868;11.680;2023-06-10T08:23:09;6.63;;;3.50;;
8538;SDS011;4307;53.868;11.680;2023-06-10T08:25:35;8.67;;;3.43;;
8538;SDS011;4307;53.868;11.680;2023-06-10T08:28:02;4.47;;;2.87;;
8538;SDS011;4307;53.868;11.680;2023-06-10T08:30:30;6.97;;;3.17;;
8538;SDS011;4307;53.868;11.680;2023-06-10T08:32:57;5.87;;;3.47;;
8538;SDS011;4307;53.868;11.680;2023-06-10T08:35:23;7.57;;;3.40;;
8538;SDS011;4307;53.868;11.680;2023-06-10T08:37:50;8.17;;;4.10;;
8538;SDS011;4307;53.868;11.680;2023-06-10T08:40:16;5.83;;;3.50;;
8538;SDS011;4307;53.868;11.680;2023-06-10T08:42:45;6.00;;;3.40;;
8538;SDS011;4307;53.868;11.680;2023-06-10T08:45:16;6.93;;;3.70;;
8538;SDS011;4307;53.868;11.680;2023-06-10T08:47:45;6.23;;;3.43;;
8538;SDS011;4307;53.868;11.680;2023-06-10T08:50:15;9.20;;;4.43;;
8538;SDS011;4307;53.868;11.680;2023-06-10T08:52:43;7.93;;;3.77;;
8538;SDS011;4307;53.868;11.680;2023-06-10T08:55:11;6.40;;;3.67;;
8538;SDS011;4307;53.868;11.680;2023-06-10T08:57:40;7.20;;;3.27;;
8538;SDS011;4307;53.868;11.680;2023-06-10T09:00:10;11.10;;;4.23;;
8538;SDS011;4307;53.868;11.680;2023-06-10T09:02:38;5.00;;;3.83;;
8538;SDS011;4307;53.868;11.680;2023-06-10T09:05:06;6.90;;;3.47;;
8538;SDS011;4307;53.868;11.680;2023-06-10T09:07:34;8.47;;;4.37;;
8538;SDS011;4307;53.868;11.680;2023-06-10T09:10:02;6.60;;;3.63;;
8538;SDS011;4307;53.868;11.680;2023-06-10T09:12:33;9.63;;;3.90;;
8538;SDS011;4307;53.868;11.680;2023-06-10T09:15:00;6.53;;;3.67;;
8538;SDS011;4307;53.868;11.680;2023-06-10T09:17:27;4.53;;;3.40;;
8538;SDS011;4307;53.868;11.680;2023-06-10T09:19:54;7.70;;;4.23;;
8538;SDS011;4307;53.868;11.680;2023-06-10T09:22:23;4.53;;;3.63;;
8538;SDS011;4307;53.868;11.680;2023-06-10T09:24:51;6.47;;;3.73;;
8538;SDS011;4307;53.868;11.680;2023-06-10T09:27:29;7.37;;;3.50;;
8538;SDS011;4307;53.868;11.680;2023-06-10T09:29:56;8.33;;;4.37;;
8538;SDS011;4307;53.868;11.680;2023-06-10T09:32:23;7.10;;;4.13;;
8538;SDS011;4307;53.868;11.680;2023-06-10T09:34:50;4.10;;;3.70;;
8538;SDS011;4307;53.868;11.680;2023-06-10T09:37:19;6.83;;;3.80;;
8538;SDS011;4307;53.868;11.680;2023-06-10T09:39:56;5.90;;;3.80;;
8538;SDS011;4307;53.868;11.680;2023-06-10T09:42:34;6.17;;;3.40;;
8538;SDS011;4307;53.868;11.680;2023-06-10T09:45:01;8.27;;;3.80;;
8538;SDS011;4307;53.868;11.680;2023-06-10T09:47:28;8.93;;;3.77;;
8538;SDS011;4307;53.868;11.680;2023-06-10T09:49:55;6.13;;;3.77;;
8538;SDS011;4307;53.868;11.680;2023-06-10T09:52:22;4.63;;;3.90;;
8538;SDS011;4307;53.868;11.680;2023-06-10T09:54:49;6.87;;;3.63;;
8538;SDS011;4307;53.868;11.680;2023-06-10T09:57:18;5.10;;;4.03;;
8538;SDS011;4307;53.868;11.680;2023-06-10T09:59:46;6.37;;;3.87;;
8538;SDS011;4307;53.868;11.680;2023-06-10T10:02:13;5.40;;;3.57;;
8538;SDS011;4307;53.868;11.680;2023-06-10T10:04:41;7.27;;;4.03;;
8538;SDS011;4307;53.868;11.680;2023-06-10T10:07:08;6.77;;;4.07;;
8538;SDS011;4307;53.868;11.680;2023-06-10T10:09:35;4.40;;;4.00;;
8538;SDS011;4307;53.868;11.680;2023-06-10T10:12:02;7.63;;;4.03;;
8538;SDS011;4307;53.868;11.680;2023-06-10T10:14:34;9.30;;;4.17;;
8538;SDS011;4307;53.868;11.680;2023-06-10T10:17:02;8.50;;;4.23;;
8538;SDS011;4307;53.868;11.680;2023-06-10T10:19:33;5.07;;;3.93;;
8538;SDS011;4307;53.868;11.680;2023-06-10T10:22:07;8.87;;;3.90;;
8538;SDS011;4307;53.868;11.680;2023-06-10T10:24:37;9.70;;;4.40;;
8538;SDS011;4307;53.868;11.680;2023-06-10T10:27:11;8.53;;;3.83;;
8538;SDS011;4307;53.868;11.680;2023-06-10T10:29:46;11.00;;;3.77;;
8538;SDS011;4307;53.868;11.680;2023-06-10T10:32:15;4.70;;;3.67;;
8538;SDS011;4307;53.868;11.680;2023-06-10T10:34:43;8.70;;;4.30;;
8538;SDS011;4307;53.868;11.680;2023-06-10T10:37:17;9.63;;;4.20;;
8538;SDS011;4307;53.868;11.680;2023-06-10T10:39:44;7.23;;;4.20;;
8538;SDS011;4307;53.868;11.680;2023-06-10T10:42:11;7.87;;;3.60;;
8538;SDS011;4307;53.868;11.680;2023-06-10T10:44:39;6.53;;;3.63;;
8538;SDS011;4307;53.868;11.680;2023-06-10T10:47:08;7.60;;;3.90;;
8538;SDS011;4307;53.868;11.680;2023-06-10T10:49:36;6.27;;;3.80;;
8538;SDS011;4307;53.868;11.680;2023-06-10T10:52:04;8.37;;;4.10;;
8538;SDS011;4307;53.868;11.680;2023-06-10T10:54:32;11.03;;;4.13;;
8538;SDS011;4307;53.868;11.680;2023-06-10T10:57:12;8.17;;;3.80;;
8538;SDS011;4307;53.868;11.680;2023-06-10T10:59:43;5.03;;;3.97;;
8538;SDS011;4307;53.868;11.680;2023-06-10T11:02:35;4.13;;;3.50;;
8538;SDS011;4307;53.868;11.680;2023-06-10T11:05:05;5.83;;;3.83;;
8538;SDS011;4307;53.868;11.680;2023-06-10T11:07:32;7.93;;;3.60;;
8538;SDS011;4307;53.868;11.680;2023-06-10T11:10:02;7.27;;;3.80;;
8538;SDS011;4307;53.868;11.680;2023-06-10T11:12:41;7.93;;;5.10;;
8538;SDS011;4307;53.868;11.680;2023-06-10T11:15:20;8.47;;;3.77;;
8538;SDS011;4307;53.868;11.680;2023-06-10T11:20:53;4.87;;;4.00;;
8538;SDS011;4307;53.868;11.680;2023-06-10T11:23:24;6.93;;;4.10;;
8538;SDS011;4307;53.868;11.680;2023-06-10T11:25:55;5.53;;;4.00;;
8538;SDS011;4307;53.868;11.680;2023-06-10T11:28:43;8.63;;;4.60;;
8538;SDS011;4307;53.868;11.680;2023-06-10T11:31:28;6.40;;;4.00;;
8538;SDS011;4307;53.868;11.680;2023-06-10T11:33:57;10.70;;;4.23;;
8538;SDS011;4307;53.868;11.680;2023-06-10T11:36:25;4.40;;;3.97;;
8538;SDS011;4307;53.868;11.680;2023-06-10T11:38:54;8.83;;;4.07;;
8538;SDS011;4307;53.868;11.680;2023-06-10T11:41:23;5.43;;;3.70;;
8538;SDS011;4307;53.868;11.680;2023-06-10T11:43:51;6.57;;;4.23;;
8538;SDS011;4307;53.868;11.680;2023-06-10T11:46:18;6.93;;;3.93;;
8538;SDS011;4307;53.868;11.680;2023-06-10T11:48:48;7.70;;;4.17;;
8538;SDS011;4307;53.868;11.680;2023-06-10T11:51:16;6.27;;;4.33;;
8538;SDS011;4307;53.868;11.680;2023-06-10T11:53:43;6.60;;;4.20;;
8538;SDS011;4307;53.868;11.680;2023-06-10T11:56:10;9.40;;;3.87;;
8538;SDS011;4307;53.868;11.680;2023-06-10T11:58:37;4.23;;;3.83;;
8538;SDS011;4307;53.868;11.680;2023-06-10T12:01:09;4.77;;;3.70;;
8538;SDS011;4307;53.868;11.680;2023-06-10T12:03:36;7.67;;;4.20;;
8538;SDS011;4307;53.868;11.680;2023-06-10T12:06:04;8.57;;;4.57;;
8538;SDS011;4307;53.868;11.680;2023-06-10T12:08:33;6.53;;;3.70;;
8538;SDS011;4307;53.868;11.680;2023-06-10T12:11:07;5.23;;;3.83;;
8538;SDS011;4307;53.868;11.680;2023-06-10T12:13:34;5.27;;;4.17;;
8538;SDS011;4307;53.868;11.680;2023-06-10T12:16:06;7.70;;;4.37;;
8538;SDS011;4307;53.868;11.680;2023-06-10T12:18:34;5.10;;;4.20;;
8538;SDS011;4307;53.868;11.680;2023-06-10T12:21:01;10.27;;;4.40;;
8538;SDS011;4307;53.868;11.680;2023-06-10T12:23:29;4.43;;;3.87;;
8538;SDS011;4307;53.868;11.680;2023-06-10T12:25:57;5.00;;;3.83;;
8538;SDS011;4307;53.868;11.680;2023-06-10T12:28:27;4.67;;;4.00;;
8538;SDS011;4307;53.868;11.680;2023-06-10T12:31:05;9.33;;;4.00;;
8538;SDS011;4307;53.868;11.680;2023-06-10T12:33:33;7.27;;;3.60;;
8538;SDS011;4307;53.868;11.680;2023-06-10T12:36:00;9.17;;;4.30;;
8538;SDS011;4307;53.868;11.680;2023-06-10T12:38:27;7.30;;;4.30;;
8538;SDS011;4307;53.868;11.680;2023-06-10T12:40:53;6.50;;;3.60;;
8538;SDS011;4307;53.868;11.680;2023-06-10T12:43:23;4.37;;;3.70;;
8538;SDS011;4307;53.868;11.680;2023-06-10T12:45:50;6.53;;;4.00;;
8538;SDS011;4307;53.868;11.680;2023-06-10T12:48:17;4.60;;;3.90;;
8538;SDS011;4307;53.868;11.680;2023-06-10T12:50:46;7.30;;;4.10;;
8538;SDS011;4307;53.868;11.680;2023-06-10T12:53:16;4.57;;;3.83;;
8538;SDS011;4307;53.868;11.680;2023-06-10T12:55:43;7.03;;;4.20;;
8538;SDS011;4307;53.868;11.680;2023-06-10T12:58:10;8.17;;;4.10;;
8538;SDS011;4307;53.868;11.680;2023-06-10T13:00:38;7.00;;;3.97;;
8538;SDS011;4307;53.868;11.680;2023-06-10T13:03:05;4.23;;;3.60;;
8538;SDS011;4307;53.868;11.680;2023-06-10T13:05:32;4.20;;;3.78;;
8538;SDS011;4307;53.868;11.680;2023-06-10T13:08:00;5.00;;;3.90;;
8538;SDS011;4307;53.868;11.680;2023-06-10T13:10:27;4.97;;;3.72;;
8538;SDS011;4307;53.868;11.680;2023-06-10T13:12:53;7.53;;;4.32;;
8538;SDS011;4307;53.868;11.680;2023-06-10T13:15:20;6.13;;;3.67;;
8538;SDS011;4307;53.868;11.680;2023-06-10T13:17:48;7.40;;;3.80;;
8538;SDS011;4307;53.868;11.680;2023-06-10T13:20:15;9.07;;;4.43;;
8538;SDS011;4307;53.868;11.680;2023-06-10T13:22:42;4.77;;;3.50;;
8538;SDS011;4307;53.868;11.680;2023-06-10T13:25:09;6.70;;;3.80;;
8538;SDS011;4307;53.868;11.680;2023-06-10T13:27:36;6.57;;;3.70;;
8538;SDS011;4307;53.868;11.680;2023-06-10T13:30:04;6.47;;;3.73;;
8538;SDS011;4307;53.868;11.680;2023-06-10T13:32:31;5.33;;;3.70;;
8538;SDS011;4307;53.868;11.680;2023-06-10T13:34:59;6.40;;;3.83;;
8538;SDS011;4307;53.868;11.680;2023-06-10T13:37:26;4.27;;;3.83;;
8538;SDS011;4307;53.868;11.680;2023-06-10T13:39:53;5.83;;;3.90;;
8538;SDS011;4307;53.868;11.680;2023-06-10T13:42:20;6.00;;;3.97;;
8538;SDS011;4307;53.868;11.680;2023-06-10T13:44:47;6.97;;;3.97;;
8538;SDS011;4307;53.868;11.680;2023-06-10T13:47:13;8.53;;;3.80;;
8538;SDS011;4307;53.868;11.680;2023-06-10T13:49:41;8.60;;;4.73;;
8538;SDS011;4307;53.868;11.680;2023-06-10T13:52:09;5.87;;;3.87;;
8538;SDS011;4307;53.868;11.680;2023-06-10T13:54:35;5.97;;;4.10;;
8538;SDS011;4307;53.868;11.680;2023-06-10T13:57:02;6.77;;;4.03;;
8538;SDS011;4307;53.868;11.680;2023-06-10T13:59:29;5.83;;;3.93;;
8538;SDS011;4307;53.868;11.680;2023-06-10T14:01:56;4.73;;;3.77;;
8538;SDS011;4307;53.868;11.680;2023-06-10T14:04:23;7.20;;;4.27;;
8538;SDS011;4307;53.868;11.680;2023-06-10T14:06:49;4.37;;;3.93;;
8538;SDS011;4307;53.868;11.680;2023-06-10T14:09:17;6.57;;;3.73;;
8538;SDS011;4307;53.868;11.680;2023-06-10T14:11:44;6.63;;;3.77;;
8538;SDS011;4307;53.868;11.680;2023-06-10T14:14:12;9.73;;;3.90;;
8538;SDS011;4307;53.868;11.680;2023-06-10T14:16:39;7.33;;;4.57;;
8538;SDS011;4307;53.868;11.680;2023-06-10T14:19:06;6.10;;;4.20;;
8538;SDS011;4307;53.868;11.680;2023-06-10T14:21:32;6.03;;;3.83;;
8538;SDS011;4307;53.868;11.680;2023-06-10T14:23:59;5.47;;;3.70;;
8538;SDS011;4307;53.868;11.680;2023-06-10T14:26:27;5.27;;;3.63;;
8538;SDS011;4307;53.868;11.680;2023-06-10T14:28:54;8.50;;;3.83;;
8538;SDS011;4307;53.868;11.680;2023-06-10T14:31:20;7.73;;;4.30;;
8538;SDS011;4307;53.868;11.680;2023-06-10T14:33:47;6.73;;;3.70;;
8538;SDS011;4307;53.868;11.680;2023-06-10T14:36:13;8.97;;;3.93;;
8538;SDS011;4307;53.868;11.680;2023-06-10T14:38:40;6.57;;;3.80;;
8538;SDS011;4307;53.868;11.680;2023-06-10T14:41:07;9.27;;;3.50;;
8538;SDS011;4307;53.868;11.680;2023-06-10T14:43:35;6.03;;;3.67;;
8538;SDS011;4307;53.868;11.680;2023-06-10T14:46:01;6.00;;;3.70;;
8538;SDS011;4307;53.868;11.680;2023-06-10T14:48:28;7.13;;;3.37;;
8538;SDS011;4307;53.868;11.680;2023-06-10T14:50:55;5.23;;;3.30;;
8538;SDS011;4307;53.868;11.680;2023-06-10T14:53:22;5.33;;;3.43;;
8538;SDS011;4307;53.868;11.680;2023-06-10T14:55:48;5.80;;;3.30;;
8538;SDS011;4307;53.868;11.680;2023-06-10T14:58:15;5.40;;;3.27;;
8538;SDS011;4307;53.868;11.680;2023-06-10T15:00:43;5.17;;;3.70;;
8538;SDS011;4307;53.868;11.680;2023-06-10T15:03:10;8.00;;;3.87;;
8538;SDS011;4307;53.868;11.680;2023-06-10T15:05:36;3.50;;;3.20;;
8538;SDS011;4307;53.868;11.680;2023-06-10T15:08:03;5.37;;;3.33;;